Time;durP1;ratioP1;P1;durP2;ratioP2;P2;SDS_P1;SDS_P2;PMS_P1;PMS_P2;Temp;Humidity;BMP_temperature;BMP_pressure;BME280_temperature;BME280_humidity;BME280_pressure;Samples;Min_cycle;Max_cycle;Signal;HPM_P1;HPM_P2
2022/05/24 00:00:25;;;;;;;1.80;1.60;;;16.40;99.90;;;;;;4955277;28;20195;-72
2022/05/24 00:02:51;;;;;;;2.70;1.63;;;16.40;99.90;;;;;;4955569;28;20170;-72
2022/05/24 00:05:18;;;;;;;8.10;1.20;;;16.40;99.90;;;;;;4954097;28;20414;-72
2022/05/24 00:07:44;;;;;;;1.07;0.97;;;16.40;99.90;;;;;;4970229;28;20438;-72
2022/05/24 00:10:18;;;;;;;4.00;2.20;;;16.40;99.90;;;;;;4954804;28;20505;-72
2022/05/24 00:12:44;;;;;;;3.10;1.60;;;16.40;99.90;;;;;;4955385;28;20414;-72
2022/05/24 00:15:23;;;;;;;1.50;1.33;;;16.40;99.90;;;;;;4955252;28;20959;-72
2022/05/24 00:17:50;;;;;;;1.40;1.03;;;16.40;99.90;;;;;;4953636;28;20296;-73
2022/05/24 00:20:16;;;;;;;1.20;1.10;;;16.40;99.90;;;;;;4953335;29;20429;-72
2022/05/24 00:22:42;;;;;;;2.73;1.30;;;16.40;99.90;;;;;;4955159;28;20802;-72
2022/05/24 00:25:08;;;;;;;3.37;3.17;;;16.40;99.90;;;;;;4954861;28;20402;-72
2022/05/24 00:27:34;;;;;;;1.10;1.00;;;16.40;99.90;;;;;;4954835;28;20831;-72
2022/05/24 00:29:59;;;;;;;4.20;2.20;;;16.40;99.90;;;;;;4954591;28;20434;-72
2022/05/24 00:32:25;;;;;;;1.37;1.27;;;16.40;99.90;;;;;;4954929;28;20695;-72
2022/05/24 00:34:51;;;;;;;1.30;1.07;;;16.40;99.90;;;;;;4954954;28;20175;-72
2022/05/24 00:37:22;;;;;;;1.83;1.33;;;16.40;99.90;;;;;;4953479;28;20281;-72
2022/05/24 00:39:48;;;;;;;1.50;1.40;;;16.40;99.90;;;;;;4954514;28;20748;-71
2022/05/24 00:42:24;;;;;;;1.27;0.77;;;16.40;99.90;;;;;;4969464;28;20497;-72
2022/05/24 00:45:01;;;;;;;1.67;1.33;;;16.40;99.90;;;;;;4954787;28;20174;-71
2022/05/24 00:47:46;;;;;;;2.87;1.20;;;16.40;99.90;;;;;;4955028;28;20895;-72
2022/05/24 00:50:19;;;;;;;1.47;1.33;;;16.40;99.90;;;;;;4954378;28;20525;-72
2022/05/24 00:53:06;;;;;;;5.20;1.40;;;16.30;99.90;;;;;;4954507;28;20926;-72
2022/05/24 00:55:42;;;;;;;1.50;1.00;;;16.40;99.90;;;;;;4953315;29;20449;-71
2022/05/24 00:58:17;;;;;;;0.80;0.70;;;16.30;99.90;;;;;;4954437;28;20488;-71
2022/05/24 01:00:42;;;;;;;0.80;0.77;;;16.30;99.90;;;;;;4954308;28;20425;-72
2022/05/24 01:03:09;;;;;;;1.67;1.00;;;16.30;99.90;;;;;;4954373;28;20406;-72
2022/05/24 01:05:34;;;;;;;1.20;1.10;;;16.30;99.90;;;;;;4954449;28;20167;-72
2022/05/24 01:08:00;;;;;;;0.97;0.87;;;16.40;99.90;;;;;;4954453;28;20966;-73
2022/05/24 01:10:49;;;;;;;2.50;0.93;;;16.40;99.90;;;;;;4954059;28;20190;-72
2022/05/24 01:13:19;;;;;;;1.00;0.80;;;16.40;99.90;;;;;;4954351;28;20177;-72
2022/05/24 01:15:45;;;;;;;1.87;1.77;;;16.40;99.90;;;;;;4952902;28;20425;-71
2022/05/24 01:18:12;;;;;;;1.40;1.30;;;16.40;99.90;;;;;;4953929;28;20461;-72
2022/05/24 01:20:42;;;;;;;1.10;1.00;;;16.40;99.90;;;;;;4953885;28;20425;-72
2022/05/24 01:23:26;;;;;;;1.67;0.90;;;16.40;99.90;;;;;;4954051;28;20472;-72
2022/05/24 01:26:02;;;;;;;1.43;0.90;;;16.40;99.90;;;;;;4952629;28;20410;-72
2022/05/24 01:28:56;;;;;;;1.33;1.00;;;16.40;99.90;;;;;;4954041;28;20409;-72
2022/05/24 01:31:23;;;;;;;2.90;0.90;;;16.40;99.90;;;;;;4953917;28;20517;-72
2022/05/24 01:36:39;;;;;;;1.50;1.07;;;16.30;99.90;;;;;;4954041;29;20445;-71
2022/05/24 01:39:10;;;;;;;1.20;0.83;;;16.30;99.90;;;;;;4953574;28;20545;-69
2022/05/24 01:41:48;;;;;;;3.00;1.30;;;16.30;99.90;;;;;;4953963;28;20461;-71
2022/05/24 01:44:18;;;;;;;2.90;1.33;;;16.30;99.90;;;;;;4953844;28;20413;-71
2022/05/24 01:46:45;;;;;;;1.73;0.93;;;16.20;99.90;;;;;;4953863;28;20416;-72
2022/05/24 01:49:24;;;;;;;1.33;1.20;;;16.20;99.90;;;;;;4953521;28;20458;-72
2022/05/24 01:52:14;;;;;;;0.87;0.83;;;16.20;99.90;;;;;;4953884;28;20410;-72
2022/05/24 01:54:45;;;;;;;0.97;0.87;;;16.20;99.90;;;;;;4952532;28;20420;-72
2022/05/24 01:57:15;;;;;;;0.80;0.70;;;16.20;99.90;;;;;;4953844;28;20545;-72
2022/05/24 01:59:43;;;;;;;1.50;1.03;;;16.20;99.90;;;;;;4953417;28;20414;-72
2022/05/24 02:02:08;;;;;;;3.57;1.93;;;16.20;99.90;;;;;;4953800;28;20406;-72
2022/05/24 02:04:34;;;;;;;1.73;1.63;;;16.20;99.90;;;;;;4953801;28;20402;-71
2022/05/24 02:07:08;;;;;;;0.90;0.80;;;16.20;99.90;;;;;;4953819;28;20539;-71
2022/05/24 02:09:35;;;;;;;0.97;0.87;;;16.20;99.90;;;;;;4953568;28;20429;-72
2022/05/24 02:12:06;;;;;;;1.47;1.37;;;16.20;99.90;;;;;;4952383;28;20406;-71
2022/05/24 02:14:35;;;;;;;0.80;0.70;;;16.20;99.90;;;;;;4953669;28;20492;-72
2022/05/24 02:17:22;;;;;;;2.20;1.40;;;16.10;99.90;;;;;;4953614;28;20466;-72
2022/05/24 02:19:53;;;;;;;1.93;1.27;;;16.10;99.90;;;;;;4953198;28;20477;-72
2022/05/24 02:22:22;;;;;;;0.80;0.60;;;16.10;99.90;;;;;;4953675;28;20406;-72
2022/05/24 02:25:13;;;;;;;0.83;0.67;;;16.10;99.90;;;;;;4953454;28;20796;-71
2022/05/24 02:27:44;;;;;;;1.10;0.90;;;16.10;99.90;;;;;;4953548;28;20425;-71
2022/05/24 02:30:17;;;;;;;1.90;1.47;;;16.00;99.90;;;;;;4953160;28;20461;-72
2022/05/24 02:32:43;;;;;;;1.00;0.90;;;16.00;99.90;;;;;;4953395;28;20500;-71
2022/05/24 02:35:10;;;;;;;1.63;1.47;;;16.00;99.90;;;;;;4953332;28;20449;-71
2022/05/24 02:37:36;;;;;;;1.67;1.27;;;15.90;99.90;;;;;;4953407;28;20453;-72
2022/05/24 02:42:46;;;;;;;2.03;1.90;;;15.90;99.90;;;;;;4956037;28;20404;-72
2022/05/24 02:45:11;;;;;;;1.10;0.80;;;15.90;99.90;;;;;;4956854;28;20410;-71
2022/05/24 02:47:37;;;;;;;2.03;0.70;;;15.90;99.90;;;;;;4956910;28;20416;-72
2022/05/24 02:50:03;;;;;;;1.57;1.00;;;15.80;99.90;;;;;;4956394;28;20198;-73
2022/05/24 02:52:29;;;;;;;0.70;0.50;;;15.80;99.90;;;;;;4956813;28;20232;-71
2022/05/24 02:54:55;;;;;;;2.13;1.10;;;15.80;99.90;;;;;;4956712;28;20410;-72
2022/05/24 02:57:20;;;;;;;1.23;1.13;;;15.80;99.90;;;;;;4971496;28;20679;-72
2022/05/24 02:59:46;;;;;;;1.10;1.00;;;15.80;99.90;;;;;;4956300;28;20430;-72
2022/05/24 03:02:11;;;;;;;1.10;0.90;;;15.80;99.90;;;;;;4956569;28;20202;-72
2022/05/24 03:04:37;;;;;;;0.90;0.80;;;15.80;99.90;;;;;;4956543;28;20166;-72
2022/05/24 03:09:46;;;;;;;0.80;0.57;;;15.70;99.90;;;;;;4955893;29;20244;-72
2022/05/24 03:14:57;;;;;;;1.47;1.10;;;15.70;99.90;;;;;;4956680;29;20656;-71
2022/05/24 03:17:24;;;;;;;1.40;0.90;;;15.70;99.90;;;;;;4956190;28;20458;-72
2022/05/24 03:19:51;;;;;;;1.00;0.80;;;15.70;99.90;;;;;;4955921;28;20430;-71
2022/05/24 03:22:17;;;;;;;2.10;1.00;;;15.60;99.90;;;;;;4955054;28;20410;-72
2022/05/24 03:24:42;;;;;;;4.63;1.30;;;15.60;99.90;;;;;;4956119;28;20913;-71
2022/05/24 03:27:11;;;;;;;0.90;0.80;;;15.60;99.90;;;;;;4956140;28;20591;-71
2022/05/24 03:29:41;;;;;;;0.90;0.90;;;15.60;99.90;;;;;;4956058;28;20186;-72
2022/05/24 03:32:08;;;;;;;1.13;0.80;;;15.60;99.90;;;;;;4955962;28;20410;-72
2022/05/24 03:34:35;;;;;;;2.20;1.80;;;15.60;99.90;;;;;;4955973;28;20418;-71
2022/05/24 03:37:00;;;;;;;1.10;0.83;;;15.60;99.90;;;;;;4955824;28;20441;-71
2022/05/24 03:39:26;;;;;;;1.20;0.70;;;15.50;99.90;;;;;;4955606;28;20457;-71
2022/05/24 03:41:52;;;;;;;1.57;0.87;;;15.50;99.90;;;;;;4955891;28;20170;-72
2022/05/24 03:44:17;;;;;;;1.00;0.90;;;15.50;99.90;;;;;;4955915;28;20177;-72
2022/05/24 03:46:43;;;;;;;0.70;0.60;;;15.50;99.90;;;;;;4955808;28;20714;-71
2022/05/24 03:49:09;;;;;;;0.93;0.80;;;15.50;99.90;;;;;;4955626;28;20226;-72
2022/05/24 03:51:35;;;;;;;1.33;1.13;;;15.50;99.90;;;;;;4955432;28;20209;-71
2022/05/24 03:54:00;;;;;;;1.30;1.20;;;15.40;99.90;;;;;;4954626;28;20771;-71
2022/05/24 03:56:26;;;;;;;1.03;0.80;;;15.40;99.90;;;;;;4955593;28;20196;-72
2022/05/24 03:58:52;;;;;;;0.80;0.70;;;15.40;99.90;;;;;;4955534;29;20230;-72
2022/05/24 04:01:17;;;;;;;0.80;0.70;;;15.40;99.90;;;;;;4955330;28;20206;-71
2022/05/24 04:03:43;;;;;;;1.17;1.07;;;15.40;99.90;;;;;;4955570;28;20173;-72
2022/05/24 04:06:09;;;;;;;1.57;1.00;;;15.40;99.90;;;;;;4955512;28;20181;-72
2022/05/24 04:08:35;;;;;;;2.10;1.37;;;15.40;99.90;;;;;;4955227;28;20194;-71
2022/05/24 04:11:08;;;;;;;2.03;1.50;;;15.30;99.90;;;;;;4955021;28;20417;-71
2022/05/24 04:13:36;;;;;;;1.67;1.47;;;15.30;99.90;;;;;;4955188;28;20170;-72
2022/05/24 04:16:01;;;;;;;1.03;0.93;;;15.30;99.90;;;;;;4955287;28;20402;-71
2022/05/24 04:18:27;;;;;;;1.23;0.80;;;15.30;99.90;;;;;;4969818;28;20444;-71
2022/05/24 04:20:53;;;;;;;0.83;0.80;;;15.30;99.90;;;;;;4954962;28;20691;-72
2022/05/24 04:23:21;;;;;;;1.10;0.80;;;15.20;99.90;;;;;;4955052;28;20177;-71
2022/05/24 04:25:48;;;;;;;1.43;0.80;;;15.20;99.90;;;;;;4954154;28;20438;-72
2022/05/24 04:28:14;;;;;;;1.00;0.80;;;15.20;99.90;;;;;;4955164;28;20453;-72
2022/05/24 04:30:40;;;;;;;4.13;1.00;;;15.20;99.90;;;;;;4955140;28;20449;-71
2022/05/24 04:33:06;;;;;;;0.80;0.67;;;15.10;99.90;;;;;;4955422;28;20409;-71
2022/05/24 04:35:32;;;;;;;0.83;0.70;;;15.10;99.90;;;;;;4954988;28;20402;-70
2022/05/24 04:37:59;;;;;;;1.50;1.13;;;15.10;99.90;;;;;;4953598;28;20225;-72
2022/05/24 04:43:09;;;;;;;1.20;0.90;;;15.00;99.90;;;;;;4955019;29;20460;-72
2022/05/24 04:45:35;;;;;;;0.93;0.70;;;15.00;99.90;;;;;;4953868;28;20418;-71
2022/05/24 04:48:00;;;;;;;0.97;0.70;;;14.90;99.90;;;;;;4954903;28;20608;-71
2022/05/24 04:50:26;;;;;;;1.07;0.97;;;14.90;99.90;;;;;;4954289;28;20210;-71
2022/05/24 04:52:52;;;;;;;1.00;0.83;;;14.80;99.90;;;;;;4954790;28;20651;-72
2022/05/24 04:55:17;;;;;;;0.70;0.50;;;14.80;99.90;;;;;;4954723;28;20170;-71
2022/05/24 04:57:44;;;;;;;0.80;0.60;;;14.80;99.90;;;;;;4953316;28;20185;-71
2022/05/24 05:00:14;;;;;;;0.70;0.50;;;14.80;99.90;;;;;;4969001;28;20201;-71
2022/05/24 05:02:41;;;;;;;1.20;0.80;;;14.80;99.90;;;;;;4954507;28;20928;-71
2022/05/24 05:05:07;;;;;;;0.87;0.70;;;14.70;99.90;;;;;;4952788;28;20768;-72
2022/05/24 05:07:33;;;;;;;0.70;0.50;;;14.70;99.90;;;;;;4954374;28;20515;-72
2022/05/24 05:09:59;;;;;;;0.80;0.60;;;14.70;99.90;;;;;;4954344;28;20422;-72
2022/05/24 05:12:26;;;;;;;0.80;0.60;;;14.70;99.90;;;;;;4953285;28;20178;-72
2022/05/24 05:14:52;;;;;;;0.77;0.57;;;14.70;99.90;;;;;;4954232;28;20761;-72
2022/05/24 05:17:18;;;;;;;0.80;0.60;;;14.60;99.90;;;;;;4952920;28;20461;-72
2022/05/24 05:19:45;;;;;;;0.80;0.80;;;14.60;99.90;;;;;;4953917;28;20437;-72
2022/05/24 05:22:11;;;;;;;0.80;0.60;;;14.60;99.90;;;;;;4954384;28;20473;-72
2022/05/24 05:24:37;;;;;;;0.80;0.60;;;14.60;99.90;;;;;;4952802;28;20410;-73
2022/05/24 05:27:03;;;;;;;0.87;0.80;;;14.60;99.90;;;;;;4954030;28;20410;-72
2022/05/24 05:32:26;;;;;;;0.90;0.70;;;14.60;99.90;;;;;;4954263;29;20396;-71
2022/05/24 05:34:52;;;;;;;0.80;0.60;;;14.50;99.90;;;;;;4954128;28;20488;-72
2022/05/24 05:37:18;;;;;;;0.80;0.70;;;14.50;99.90;;;;;;4954297;28;20448;-72
2022/05/24 05:39:44;;;;;;;0.80;0.60;;;14.50;99.90;;;;;;4952485;28;20434;-72
2022/05/24 05:42:09;;;;;;;0.70;0.60;;;14.50;99.90;;;;;;4954284;28;20202;-71
2022/05/24 05:44:35;;;;;;;0.80;0.60;;;14.40;99.90;;;;;;4954083;28;20237;-72
2022/05/24 05:47:00;;;;;;;0.70;0.50;;;14.40;99.90;;;;;;4953841;28;20480;-72
2022/05/24 05:49:26;;;;;;;0.80;0.60;;;14.30;99.90;;;;;;4952487;28;20198;-72
2022/05/24 05:51:51;;;;;;;0.80;0.50;;;14.30;99.90;;;;;;4952450;28;20174;-71
2022/05/24 05:54:17;;;;;;;0.80;0.60;;;14.20;99.90;;;;;;4953850;28;20652;-72
2022/05/24 05:56:43;;;;;;;0.70;0.50;;;14.20;99.90;;;;;;4953818;28;20217;-71
2022/05/24 05:59:08;;;;;;;1.57;0.70;;;14.10;99.90;;;;;;4953698;28;20190;-71
2022/05/24 06:01:34;;;;;;;0.90;0.60;;;14.10;99.90;;;;;;4953682;28;20170;-71
2022/05/24 06:04:00;;;;;;;0.80;0.70;;;14.00;99.90;;;;;;4968587;28;20174;-72
2022/05/24 06:06:33;;;;;;;1.00;0.90;;;14.00;99.90;;;;;;4953745;28;20170;-72
2022/05/24 06:08:58;;;;;;;0.77;0.57;;;13.90;99.90;;;;;;4953703;28;21066;-72
2022/05/24 06:11:24;;;;;;;0.70;0.50;;;13.90;99.90;;;;;;4952199;28;20545;-71
2022/05/24 06:13:50;;;;;;;0.70;0.50;;;13.90;99.90;;;;;;4953782;28;20213;-72
2022/05/24 06:16:16;;;;;;;0.77;0.60;;;13.90;99.90;;;;;;4953881;28;20504;-72
2022/05/24 06:18:42;;;;;;;0.70;0.50;;;13.90;99.90;;;;;;4972210;28;20433;-72
2022/05/24 06:21:07;;;;;;;1.00;0.80;;;13.90;99.90;;;;;;4957100;28;20756;-72
2022/05/24 06:23:33;;;;;;;0.70;0.50;;;13.90;99.90;;;;;;4957367;28;20203;-71
2022/05/24 06:25:58;;;;;;;0.80;0.50;;;13.90;99.90;;;;;;4972160;28;20170;-71
2022/05/24 06:28:26;;;;;;;0.70;0.50;;;13.80;99.90;;;;;;4971947;28;20687;-71
2022/05/24 06:30:51;;;;;;;0.73;0.57;;;13.80;99.90;;;;;;4956818;28;20189;-71
2022/05/24 06:33:17;;;;;;;0.80;0.60;;;13.80;99.90;;;;;;4957222;28;20418;-71
2022/05/24 06:35:42;;;;;;;0.70;0.60;;;13.80;99.90;;;;;;4956175;28;20248;-72
2022/05/24 06:38:08;;;;;;;0.70;0.50;;;13.90;99.90;;;;;;4957083;28;20252;-71
2022/05/24 06:40:34;;;;;;;1.63;0.60;;;14.00;99.90;;;;;;4956978;28;20687;-72
2022/05/24 06:43:00;;;;;;;0.80;0.70;;;14.00;99.90;;;;;;4955523;28;20416;-72
2022/05/24 06:45:26;;;;;;;0.70;0.50;;;14.10;99.90;;;;;;4956798;28;20841;-72
2022/05/24 06:47:52;;;;;;;0.70;0.60;;;14.20;99.90;;;;;;4957127;28;20461;-72
2022/05/24 06:50:17;;;;;;;0.80;0.50;;;14.30;99.90;;;;;;4956954;28;20259;-71
2022/05/24 06:52:43;;;;;;;0.80;0.60;;;14.40;99.90;;;;;;4957040;28;20203;-72
2022/05/24 06:55:10;;;;;;;0.70;0.50;;;14.70;99.90;;;;;;4956875;28;20822;-72
2022/05/24 06:57:35;;;;;;;0.70;0.50;;;14.80;99.90;;;;;;4956695;28;20777;-71
2022/05/24 07:02:47;;;;;;;1.07;0.77;;;15.20;99.90;;;;;;4956673;29;20200;-72
2022/05/24 07:05:19;;;;;;;0.80;0.73;;;15.40;99.90;;;;;;4956552;28;20410;-71
2022/05/24 07:07:45;;;;;;;0.70;0.53;;;15.50;99.90;;;;;;4956485;28;20202;-71
2022/05/24 07:10:15;;;;;;;0.80;0.60;;;15.60;99.90;;;;;;4956309;28;20421;-72
2022/05/24 07:12:41;;;;;;;1.17;0.80;;;15.70;99.90;;;;;;4956504;28;20644;-72
2022/05/24 07:15:07;;;;;;;1.70;1.10;;;16.00;99.90;;;;;;4955194;28;20500;-72
2022/05/24 07:17:33;;;;;;;1.73;0.70;;;16.40;99.90;;;;;;4971248;28;20446;-71
2022/05/24 07:19:58;;;;;;;0.80;0.50;;;17.00;99.90;;;;;;4955985;28;20444;-72
2022/05/24 07:22:24;;;;;;;0.80;0.50;;;17.50;99.90;;;;;;4956498;28;20182;-71
2022/05/24 07:24:50;;;;;;;0.70;0.60;;;17.90;99.90;;;;;;4956493;28;20178;-72
2022/05/24 07:27:18;;;;;;;0.70;0.50;;;18.30;99.90;;;;;;4956408;28;20547;-72
2022/05/24 07:29:44;;;;;;;0.80;0.60;;;18.80;99.90;;;;;;4956340;28;20835;-72
2022/05/24 07:32:10;;;;;;;0.80;0.50;;;19.50;99.90;;;;;;4957207;28;20394;-72
2022/05/24 07:34:37;;;;;;;1.00;0.77;;;20.00;99.90;;;;;;4956776;28;20535;-72
2022/05/24 07:37:04;;;;;;;0.90;0.80;;;20.30;99.90;;;;;;4955690;28;20414;-71
2022/05/24 07:39:30;;;;;;;1.57;0.70;;;20.60;99.90;;;;;;4956573;28;20843;-72
2022/05/24 07:47:32;;;;;;;0.80;0.70;;;22.90;99.90;;;;;;4956381;29;20934;-72
2022/05/24 07:49:58;;;;;;;3.37;0.70;;;23.30;99.90;;;;;;4955846;28;20513;-72
2022/05/24 07:52:24;;;;;;;1.00;0.90;;;23.60;99.90;;;;;;4956051;28;20976;-72
2022/05/24 07:54:49;;;;;;;0.90;0.70;;;24.80;99.90;;;;;;4956305;28;20240;-72
2022/05/24 07:57:15;;;;;;;0.80;0.60;;;25.50;99.90;;;;;;4957067;28;20221;-72
2022/05/24 07:59:43;;;;;;;1.00;0.90;;;26.00;99.90;;;;;;4957421;28;20190;-69
2022/05/24 08:02:09;;;;;;;1.57;1.00;;;26.30;99.90;;;;;;4956237;28;20699;-71
2022/05/24 08:04:35;;;;;;;0.93;0.70;;;27.60;99.90;;;;;;4956222;28;20397;-72
2022/05/24 08:07:01;;;;;;;0.90;0.70;;;29.20;99.90;;;;;;4971410;28;20652;-72
2022/05/24 08:09:26;;;;;;;1.13;0.83;;;31.00;99.90;;;;;;4955529;28;20202;-72
2022/05/24 08:11:52;;;;;;;0.90;0.80;;;32.00;90.50;;;;;;4955278;28;20409;-72
2022/05/24 08:14:18;;;;;;;1.30;0.80;;;32.60;80.40;;;;;;4955717;28;20687;-72
2022/05/24 08:16:44;;;;;;;0.90;0.67;;;32.70;64.80;;;;;;4970197;28;20171;-68
2022/05/24 08:19:09;;;;;;;1.03;0.80;;;31.80;58.80;;;;;;4955277;28;20202;-70
2022/05/24 08:21:36;;;;;;;0.90;0.80;;;31.00;57.90;;;;;;4953869;28;20512;-70
2022/05/24 08:24:02;;;;;;;0.90;0.70;;;30.60;56.30;;;;;;4954117;29;20174;-73
2022/05/24 08:26:27;;;;;;;1.00;0.80;;;30.20;55.10;;;;;;4970210;28;20422;-69
2022/05/24 08:28:53;;;;;;;1.37;1.27;;;29.50;53.90;;;;;;4955241;29;20458;-70
2022/05/24 08:31:19;;;;;;;1.20;1.00;;;28.50;54.10;;;;;;4955018;29;20169;-70
2022/05/24 08:33:46;;;;;;;0.90;0.70;;;27.40;55.20;;;;;;4954945;28;20222;-70
2022/05/24 08:36:12;;;;;;;0.90;0.60;;;26.30;56.60;;;;;;4955227;29;20430;-70
2022/05/24 08:38:39;;;;;;;0.80;0.60;;;25.30;58.00;;;;;;4955019;28;20409;-70
2022/05/24 08:41:12;;;;;;;0.90;0.70;;;24.40;59.40;;;;;;4954698;29;20500;-70
2022/05/24 08:43:46;;;;;;;0.80;0.60;;;23.60;61.40;;;;;;4955155;29;20437;-68
2022/05/24 08:49:07;;;;;;;0.80;0.60;;;22.70;75.00;;;;;;4955066;29;20460;-69
2022/05/24 08:51:52;;;;;;;0.90;0.70;;;24.40;86.10;;;;;;4954652;28;20406;-72
2022/05/24 08:54:26;;;;;;;1.10;0.63;;;25.00;83.30;;;;;;4954896;29;20816;-70
2022/05/24 08:56:57;;;;;;;0.80;0.60;;;25.20;82.70;;;;;;4954761;29;20432;-71
2022/05/24 08:59:32;;;;;;;0.87;0.70;;;24.90;84.20;;;;;;4954622;29;20418;-71
2022/05/24 09:01:59;;;;;;;0.80;0.60;;;24.60;84.30;;;;;;4954509;29;20397;-70
2022/05/24 09:04:26;;;;;;;0.80;0.60;;;24.10;80.10;;;;;;4954572;29;20554;-70
2022/05/24 09:06:51;;;;;;;1.00;0.90;;;23.60;80.30;;;;;;4954574;28;20501;-71
2022/05/24 09:09:34;;;;;;;0.80;0.57;;;23.50;85.20;;;;;;4954579;29;20867;-69
2022/05/24 09:12:34;;;;;;;0.80;0.53;;;23.50;88.10;;;;;;4954309;28;20163;-70
2022/05/24 09:18:48;;;;;;;0.80;0.70;;;24.80;84.20;;;;;;4954438;29;20417;-70
2022/05/24 09:21:23;;;;;;;0.80;0.70;;;24.30;78.50;;;;;;4953942;29;20412;-70
2022/05/24 09:23:55;;;;;;;0.90;0.70;;;23.70;75.40;;;;;;4954350;29;20448;-71
2022/05/24 09:26:22;;;;;;;0.90;0.70;;;23.30;77.50;;;;;;4954481;28;20485;-71
2022/05/24 09:28:54;;;;;;;0.80;0.50;;;23.00;81.20;;;;;;4954113;29;20450;-70
2022/05/24 09:31:38;;;;;;;1.00;0.60;;;22.90;83.50;;;;;;4953896;28;20903;-70
2022/05/24 09:34:07;;;;;;;0.90;0.70;;;24.10;90.40;;;;;;4954189;29;20457;-70
2022/05/24 09:36:54;;;;;;;0.80;0.60;;;25.40;83.80;;;;;;4953905;28;20402;-71
2022/05/24 09:39:41;;;;;;;0.80;0.60;;;25.70;73.60;;;;;;4954320;29;20444;-69
2022/05/24 09:42:23;;;;;;;1.40;0.67;;;25.60;67.40;;;;;;4954012;28;20413;-70
2022/05/24 09:45:01;;;;;;;1.13;1.03;;;25.30;66.30;;;;;;4954139;28;20412;-70
2022/05/24 09:47:50;;;;;;;0.90;0.63;;;25.30;67.20;;;;;;4952654;28;20540;-71
2022/05/24 09:50:18;;;;;;;0.90;0.63;;;26.60;67.00;;;;;;4953804;28;20783;-71
2022/05/24 09:53:02;;;;;;;2.53;0.70;;;28.40;64.50;;;;;;4956865;28;20492;-70
2022/05/24 09:55:47;;;;;;;1.23;0.70;;;30.00;60.40;;;;;;4957908;29;20409;-71
2022/05/24 09:58:33;;;;;;;1.00;0.80;;;31.20;58.40;;;;;;4957933;28;20416;-71
2022/05/24 10:01:03;;;;;;;1.53;0.80;;;32.40;51.70;;;;;;4972616;28;20442;-70
2022/05/24 10:03:38;;;;;;;1.00;0.90;;;33.10;48.60;;;;;;4957935;29;20410;-71
2022/05/24 10:06:22;;;;;;;0.90;0.80;;;34.80;46.70;;;;;;4972752;28;20926;-71
2022/05/24 10:08:56;;;;;;;1.30;0.80;;;36.70;42.80;;;;;;4957536;28;20924;-71
2022/05/24 10:11:28;;;;;;;1.00;0.80;;;38.70;41.80;;;;;;4972206;28;20444;-72
2022/05/24 10:14:14;;;;;;;1.00;0.90;;;40.80;39.90;;;;;;4957503;28;20413;-72
2022/05/24 10:16:49;;;;;;;1.00;0.90;;;42.40;37.20;;;;;;4957435;29;20497;-72
2022/05/24 10:19:25;;;;;;;1.10;1.00;;;43.20;33.40;;;;;;4957464;28;20444;-71
2022/05/24 10:22:13;;;;;;;1.63;0.90;;;42.40;30.90;;;;;;4957346;28;20417;-71
2022/05/24 10:24:44;;;;;;;1.00;0.90;;;40.50;30.30;;;;;;4957517;29;20420;-70
2022/05/24 10:27:30;;;;;;;2.50;0.90;;;38.40;30.60;;;;;;4956182;29;20450;-70
2022/05/24 10:30:07;;;;;;;1.00;0.90;;;36.20;31.70;;;;;;4957267;28;20428;-70
2022/05/24 10:38:47;;;;;;;0.90;0.70;;;31.70;37.70;;;;;;4956964;29;20396;-71
2022/05/24 10:41:19;;;;;;;1.60;0.70;;;30.80;39.10;;;;;;4956733;29;20414;-71
2022/05/24 10:43:57;;;;;;;2.90;0.90;;;30.40;40.20;;;;;;4956738;29;20230;-71
2022/05/24 10:46:27;;;;;;;0.90;0.77;;;31.10;41.70;;;;;;4957247;29;20930;-69
2022/05/24 10:49:18;;;;;;;1.10;0.80;;;31.70;41.30;;;;;;4955326;29;20952;-71
2022/05/24 10:52:00;;;;;;;1.20;0.80;;;33.50;39.70;;;;;;4957098;29;20988;-70
2022/05/24 10:54:39;;;;;;;1.53;0.80;;;36.00;38.40;;;;;;4956679;29;20409;-71
2022/05/24 10:57:14;;;;;;;0.90;0.80;;;37.80;37.10;;;;;;4956280;29;20413;-71
2022/05/24 11:00:12;;;;;;;1.00;0.90;;;40.10;35.70;;;;;;4956556;28;20527;-72
2022/05/24 11:02:52;;;;;;;0.90;0.80;;;42.50;33.20;;;;;;4956064;28;20418;-71
2022/05/24 11:05:32;;;;;;;0.90;0.80;;;43.30;30.90;;;;;;4956601;28;20805;-71
2022/05/24 11:08:31;;;;;;;0.97;0.87;;;43.70;31.00;;;;;;4956685;29;20522;-71
2022/05/24 11:11:04;;;;;;;1.10;1.00;;;43.60;29.90;;;;;;4956537;28;20473;-70
2022/05/24 11:13:47;;;;;;;1.00;0.90;;;42.90;28.30;;;;;;4956662;28;20400;-71
2022/05/24 11:16:20;;;;;;;1.00;0.90;;;41.20;28.40;;;;;;4956679;28;20410;-70
2022/05/24 11:18:46;;;;;;;1.00;0.80;;;39.80;28.80;;;;;;4956559;28;20430;-70
2022/05/24 11:21:32;;;;;;;0.90;0.80;;;38.00;29.30;;;;;;4955481;28;20445;-71
2022/05/24 11:24:17;;;;;;;1.07;0.77;;;36.30;30.10;;;;;;4956748;28;20410;-70
2022/05/24 11:26:51;;;;;;;0.90;0.80;;;34.30;31.70;;;;;;4956629;28;20827;-70
2022/05/24 11:29:33;;;;;;;0.90;0.70;;;32.70;33.30;;;;;;4956339;28;20469;-70
2022/05/24 11:32:02;;;;;;;1.40;0.80;;;31.50;35.00;;;;;;4971318;28;20424;-69
2022/05/24 11:34:33;;;;;;;1.00;0.90;;;30.40;36.50;;;;;;4971079;28;20410;-70
2022/05/24 11:37:29;;;;;;;0.90;0.70;;;29.70;38.30;;;;;;4956389;28;20402;-70
2022/05/24 11:39:55;;;;;;;0.90;0.70;;;30.10;40.30;;;;;;4954795;28;20943;-71
2022/05/24 11:42:34;;;;;;;0.90;0.70;;;31.90;40.20;;;;;;4955218;29;20421;-71
2022/05/24 11:45:20;;;;;;;1.00;0.90;;;34.20;39.30;;;;;;4954998;28;20414;-70
2022/05/24 11:47:48;;;;;;;0.90;0.70;;;36.80;38.50;;;;;;4956048;29;20468;-70
2022/05/24 11:50:32;;;;;;;1.20;0.87;;;39.40;34.30;;;;;;4955719;28;20422;-70
2022/05/24 11:53:37;;;;;;;0.90;0.80;;;40.50;31.60;;;;;;4955850;28;20406;-71
2022/05/24 11:56:09;;;;;;;0.90;0.80;;;40.80;29.60;;;;;;4970676;28;20409;-71
2022/05/24 11:58:34;;;;;;;1.30;1.20;;;40.70;29.20;;;;;;4956132;28;20462;-71
2022/05/24 12:01:29;;;;;;;0.97;0.87;;;39.90;29.60;;;;;;4955472;28;20978;-70
2022/05/24 12:07:55;;;;;;;1.10;0.80;;;39.40;29.80;;;;;;4956383;29;20781;-70
2022/05/24 12:10:23;;;;;;;0.90;0.80;;;38.60;30.50;;;;;;4955608;28;20512;-69
2022/05/24 12:12:55;;;;;;;1.00;0.77;;;37.60;31.10;;;;;;4956787;28;20402;-70
2022/05/24 12:15:22;;;;;;;1.00;0.80;;;36.70;31.20;;;;;;4955991;28;20936;-70
2022/05/24 12:18:11;;;;;;;1.00;0.90;;;35.70;31.00;;;;;;4956376;28;20517;-69
2022/05/24 12:20:37;;;;;;;1.00;0.80;;;34.70;31.40;;;;;;4955886;28;20487;-70
2022/05/24 12:23:09;;;;;;;1.00;0.90;;;33.80;32.50;;;;;;4954618;29;20466;-69
2022/05/24 12:26:08;;;;;;;0.90;0.70;;;33.90;34.20;;;;;;4955737;28;20178;-70
2022/05/24 12:28:37;;;;;;;0.90;0.70;;;35.20;33.80;;;;;;4954697;28;20453;-71
2022/05/24 12:31:18;;;;;;;1.10;1.00;;;36.80;33.00;;;;;;4955226;28;20542;-71
2022/05/24 12:33:52;;;;;;;1.00;0.90;;;38.20;32.20;;;;;;4955076;28;20405;-71
2022/05/24 12:36:34;;;;;;;0.90;0.80;;;39.50;30.50;;;;;;4955011;28;20440;-71
2022/05/24 12:39:25;;;;;;;1.00;0.90;;;40.30;29.90;;;;;;4954854;28;20417;-71
2022/05/24 12:41:56;;;;;;;1.10;1.00;;;41.30;29.40;;;;;;4954667;28;20473;-71
2022/05/24 12:44:28;;;;;;;2.10;1.57;;;41.90;28.70;;;;;;4955157;28;20401;-71
2022/05/24 12:47:16;;;;;;;0.90;0.80;;;42.50;28.70;;;;;;4954707;28;20473;-70
2022/05/24 12:49:55;;;;;;;1.27;1.17;;;43.00;28.30;;;;;;4954652;29;20433;-71
2022/05/24 12:52:22;;;;;;;1.00;0.90;;;42.60;27.70;;;;;;4954545;28;20457;-71
2022/05/24 12:54:54;;;;;;;1.23;1.00;;;42.50;28.20;;;;;;4953335;28;20412;-71
2022/05/24 12:57:31;;;;;;;0.90;0.80;;;42.60;28.90;;;;;;4954689;28;20394;-71
2022/05/24 12:59:59;;;;;;;1.20;1.10;;;42.90;29.30;;;;;;4953245;28;20428;-71
2022/05/24 13:02:41;;;;;;;1.50;1.20;;;43.50;29.90;;;;;;4954391;28;20394;-71
2022/05/24 13:05:06;;;;;;;1.20;1.00;;;42.90;29.00;;;;;;4969338;28;20445;-71
2022/05/24 13:07:38;;;;;;;1.00;0.90;;;41.90;29.30;;;;;;4953060;28;20406;-70
2022/05/24 13:10:12;;;;;;;1.00;0.90;;;41.70;30.20;;;;;;4954300;28;20265;-70
2022/05/24 13:12:38;;;;;;;1.00;0.90;;;42.00;30.80;;;;;;4954222;28;20497;-69
2022/05/24 13:15:08;;;;;;;0.97;0.87;;;41.70;31.00;;;;;;4954283;28;20928;-71
2022/05/24 13:17:45;;;;;;;1.10;1.00;;;41.10;31.60;;;;;;4954262;28;20272;-69
2022/05/24 13:20:28;;;;;;;1.00;0.90;;;40.40;32.30;;;;;;4954096;28;20516;-71
2022/05/24 13:22:57;;;;;;;1.10;1.00;;;39.50;32.90;;;;;;4954274;28;20500;-70
2022/05/24 13:25:26;;;;;;;0.90;0.80;;;38.60;33.30;;;;;;4954336;28;20410;-71
2022/05/24 13:27:54;;;;;;;0.90;0.70;;;37.80;34.00;;;;;;4954246;28;20461;-70
2022/05/24 13:33:33;;;;;;;1.00;0.80;;;36.00;34.90;;;;;;4953870;29;20464;-70
2022/05/24 13:36:23;;;;;;;0.90;0.80;;;35.00;35.40;;;;;;4954494;28;20457;-70
2022/05/24 13:39:03;;;;;;;0.90;0.70;;;34.10;36.10;;;;;;4951220;28;20417;-70
2022/05/24 13:41:38;;;;;;;0.90;0.60;;;33.40;37.20;;;;;;4952753;28;20417;-70
2022/05/24 13:44:09;;;;;;;0.90;0.70;;;32.80;37.80;;;;;;4954242;28;20911;-71
2022/05/24 13:46:59;;;;;;;1.00;0.83;;;32.30;38.40;;;;;;4954003;28;20410;-70
2022/05/24 13:49:30;;;;;;;0.90;0.60;;;31.90;39.10;;;;;;4953977;28;20532;-70
2022/05/24 13:52:14;;;;;;;0.90;0.70;;;31.40;39.50;;;;;;4952582;28;20421;-71